sensor_id;sensor_type;location;lat;lon;timestamp;temperature;humidity
25352;DHT22;13304;48.464;8.712;2023-02-13T00:01:58;4.30;82.70
25352;DHT22;13304;48.464;8.712;2023-02-13T00:04:23;4.30;82.70
25352;DHT22;13304;48.464;8.712;2023-02-13T00:06:49;4.30;82.80
25352;DHT22;13304;48.464;8.712;2023-02-13T00:09:15;4.30;82.80
25352;DHT22;13304;48.464;8.712;2023-02-13T00:11:41;4.30;82.80
25352;DHT22;13304;48.464;8.712;2023-02-13T00:14:07;4.20;82.50
25352;DHT22;13304;48.464;8.712;2023-02-13T00:16:32;4.20;82.60
25352;DHT22;13304;48.464;8.712;2023-02-13T00:18:58;4.20;82.60
25352;DHT22;13304;48.464;8.712;2023-02-13T00:21:24;4.20;82.60
25352;DHT22;13304;48.464;8.712;2023-02-13T00:23:49;4.20;82.70
25352;DHT22;13304;48.464;8.712;2023-02-13T00:26:16;4.10;82.50
25352;DHT22;13304;48.464;8.712;2023-02-13T00:28:42;4.10;82.60
25352;DHT22;13304;48.464;8.712;2023-02-13T00:31:13;4.10;82.60
25352;DHT22;13304;48.464;8.712;2023-02-13T00:33:39;4.10;82.60
25352;DHT22;13304;48.464;8.712;2023-02-13T00:36:19;4.10;82.70
25352;DHT22;13304;48.464;8.712;2023-02-13T00:38:46;4.00;82.80
25352;DHT22;13304;48.464;8.712;2023-02-13T00:41:13;4.10;82.90
25352;DHT22;13304;48.464;8.712;2023-02-13T00:43:39;4.00;82.80
25352;DHT22;13304;48.464;8.712;2023-02-13T00:46:05;4.00;82.70
25352;DHT22;13304;48.464;8.712;2023-02-13T00:48:32;4.00;82.50
25352;DHT22;13304;48.464;8.712;2023-02-13T00:50:59;4.00;82.30
25352;DHT22;13304;48.464;8.712;2023-02-13T00:53:25;4.00;82.30
25352;DHT22;13304;48.464;8.712;2023-02-13T00:55:51;3.90;82.30
25352;DHT22;13304;48.464;8.712;2023-02-13T00:58:17;3.90;82.40
25352;DHT22;13304;48.464;8.712;2023-02-13T01:00:44;3.90;82.50
25352;DHT22;13304;48.464;8.712;2023-02-13T01:03:12;3.90;82.60
25352;DHT22;13304;48.464;8.712;2023-02-13T01:05:38;3.90;82.60
25352;DHT22;13304;48.464;8.712;2023-02-13T01:08:04;3.90;82.60
25352;DHT22;13304;48.464;8.712;2023-02-13T01:10:30;3.80;82.60
25352;DHT22;13304;48.464;8.712;2023-02-13T01:12:55;3.80;82.50
25352;DHT22;13304;48.464;8.712;2023-02-13T01:15:21;3.80;82.60
25352;DHT22;13304;48.464;8.712;2023-02-13T01:17:47;3.80;82.40
25352;DHT22;13304;48.464;8.712;2023-02-13T01:20:14;3.80;82.00
25352;DHT22;13304;48.464;8.712;2023-02-13T01:22:40;3.70;82.00
25352;DHT22;13304;48.464;8.712;2023-02-13T01:25:09;3.70;81.70
25352;DHT22;13304;48.464;8.712;2023-02-13T01:27:35;3.60;81.80
25352;DHT22;13304;48.464;8.712;2023-02-13T01:30:05;3.60;81.90
25352;DHT22;13304;48.464;8.712;2023-02-13T01:32:36;3.60;82.00
25352;DHT22;13304;48.464;8.712;2023-02-13T01:35:03;3.50;82.10
25352;DHT22;13304;48.464;8.712;2023-02-13T01:37:29;3.50;82.10
25352;DHT22;13304;48.464;8.712;2023-02-13T01:39:54;3.50;82.40
25352;DHT22;13304;48.464;8.712;2023-02-13T01:42:26;3.50;82.50
25352;DHT22;13304;48.464;8.712;2023-02-13T01:44:57;3.40;82.70
25352;DHT22;13304;48.464;8.712;2023-02-13T01:47:44;3.40;82.90
25352;DHT22;13304;48.464;8.712;2023-02-13T01:52:53;3.20;82.70
25352;DHT22;13304;48.464;8.712;2023-02-13T01:55:21;3.20;82.80
25352;DHT22;13304;48.464;8.712;2023-02-13T01:57:53;3.10;83.70
25352;DHT22;13304;48.464;8.712;2023-02-13T02:00:22;3.10;83.20
25352;DHT22;13304;48.464;8.712;2023-02-13T02:02:56;3.10;83.40
25352;DHT22;13304;48.464;8.712;2023-02-13T02:05:25;3.10;83.50
25352;DHT22;13304;48.464;8.712;2023-02-13T02:07:53;3.00;83.50
25352;DHT22;13304;48.464;8.712;2023-02-13T02:10:20;3.00;83.90
25352;DHT22;13304;48.464;8.712;2023-02-13T02:13:14;3.00;84.20
25352;DHT22;13304;48.464;8.712;2023-02-13T02:15:41;3.00;84.50
25352;DHT22;13304;48.464;8.712;2023-02-13T02:18:22;3.00;84.50
25352;DHT22;13304;48.464;8.712;2023-02-13T02:21:27;3.00;84.40
25352;DHT22;13304;48.464;8.712;2023-02-13T02:38:26;2.90;84.20
25352;DHT22;13304;48.464;8.712;2023-02-13T02:47:13;2.80;84.00
25352;DHT22;13304;48.464;8.712;2023-02-13T02:55:47;2.80;84.60
25352;DHT22;13304;48.464;8.712;2023-02-13T02:58:29;2.70;84.70
25352;DHT22;13304;48.464;8.712;2023-02-13T03:01:17;2.70;84.70
25352;DHT22;13304;48.464;8.712;2023-02-13T03:04:03;2.70;84.90
25352;DHT22;13304;48.464;8.712;2023-02-13T03:06:48;2.70;85.20
25352;DHT22;13304;48.464;8.712;2023-02-13T03:09:22;2.70;85.10
25352;DHT22;13304;48.464;8.712;2023-02-13T03:12:08;2.60;85.30
25352;DHT22;13304;48.464;8.712;2023-02-13T03:14:54;2.60;85.30
25352;DHT22;13304;48.464;8.712;2023-02-13T03:17:20;2.60;85.40
25352;DHT22;13304;48.464;8.712;2023-02-13T03:20:10;2.60;85.50
25352;DHT22;13304;48.464;8.712;2023-02-13T03:23:31;2.60;85.30
25352;DHT22;13304;48.464;8.712;2023-02-13T03:26:16;2.60;85.30
25352;DHT22;13304;48.464;8.712;2023-02-13T03:29:13;2.60;85.10
25352;DHT22;13304;48.464;8.712;2023-02-13T03:34:41;2.60;85.00
25352;DHT22;13304;48.464;8.712;2023-02-13T03:37:31;2.60;85.10
25352;DHT22;13304;48.464;8.712;2023-02-13T03:40:35;2.60;85.00
25352;DHT22;13304;48.464;8.712;2023-02-13T03:43:12;2.60;85.30
25352;DHT22;13304;48.464;8.712;2023-02-13T03:45:43;2.60;85.20
25352;DHT22;13304;48.464;8.712;2023-02-13T03:48:34;2.50;85.20
25352;DHT22;13304;48.464;8.712;2023-02-13T03:51:39;2.50;85.50
25352;DHT22;13304;48.464;8.712;2023-02-13T03:54:22;2.50;85.30
25352;DHT22;13304;48.464;8.712;2023-02-13T03:57:14;2.50;85.20
25352;DHT22;13304;48.464;8.712;2023-02-13T04:00:02;2.50;85.30
25352;DHT22;13304;48.464;8.712;2023-02-13T04:02:32;2.50;85.30
25352;DHT22;13304;48.464;8.712;2023-02-13T04:07:27;2.60;86.10
25352;DHT22;13304;48.464;8.712;2023-02-13T04:10:03;2.60;85.40
25352;DHT22;13304;48.464;8.712;2023-02-13T04:17:46;2.60;85.30
25352;DHT22;13304;48.464;8.712;2023-02-13T04:20:14;2.60;85.20
25352;DHT22;13304;48.464;8.712;2023-02-13T04:22:45;2.60;85.00
25352;DHT22;13304;48.464;8.712;2023-02-13T04:25:15;2.60;85.00
25352;DHT22;13304;48.464;8.712;2023-02-13T04:27:41;2.50;85.00
25352;DHT22;13304;48.464;8.712;2023-02-13T04:30:08;2.50;85.20
25352;DHT22;13304;48.464;8.712;2023-02-13T04:32:34;2.50;85.40
25352;DHT22;13304;48.464;8.712;2023-02-13T04:35:00;2.50;85.60
25352;DHT22;13304;48.464;8.712;2023-02-13T04:37:26;2.50;85.90
25352;DHT22;13304;48.464;8.712;2023-02-13T04:39:52;2.50;86.30
25352;DHT22;13304;48.464;8.712;2023-02-13T04:42:17;2.50;86.30
25352;DHT22;13304;48.464;8.712;2023-02-13T04:44:43;2.50;86.50
25352;DHT22;13304;48.464;8.712;2023-02-13T04:47:09;2.40;86.70
25352;DHT22;13304;48.464;8.712;2023-02-13T04:49:35;2.40;86.80
25352;DHT22;13304;48.464;8.712;2023-02-13T04:52:01;2.40;86.80
25352;DHT22;13304;48.464;8.712;2023-02-13T04:54:27;2.40;86.70
25352;DHT22;13304;48.464;8.712;2023-02-13T04:56:53;2.40;86.90
25352;DHT22;13304;48.464;8.712;2023-02-13T04:59:18;2.40;86.90
25352;DHT22;13304;48.464;8.712;2023-02-13T05:01:44;2.40;87.20
25352;DHT22;13304;48.464;8.712;2023-02-13T05:04:10;2.40;87.10
25352;DHT22;13304;48.464;8.712;2023-02-13T05:06:41;2.40;87.10
25352;DHT22;13304;48.464;8.712;2023-02-13T05:09:09;2.40;87.40
25352;DHT22;13304;48.464;8.712;2023-02-13T05:11:34;2.40;87.20
25352;DHT22;13304;48.464;8.712;2023-02-13T05:14:00;2.40;87.40
25352;DHT22;13304;48.464;8.712;2023-02-13T05:16:26;2.40;87.70
25352;DHT22;13304;48.464;8.712;2023-02-13T05:18:52;2.40;87.50
25352;DHT22;13304;48.464;8.712;2023-02-13T05:21:20;2.40;87.50
25352;DHT22;13304;48.464;8.712;2023-02-13T05:24:04;2.40;87.90
25352;DHT22;13304;48.464;8.712;2023-02-13T05:26:30;2.40;87.80
25352;DHT22;13304;48.464;8.712;2023-02-13T05:28:56;2.40;87.70
25352;DHT22;13304;48.464;8.712;2023-02-13T05:31:40;2.40;87.90
25352;DHT22;13304;48.464;8.712;2023-02-13T05:34:06;2.40;87.80
25352;DHT22;13304;48.464;8.712;2023-02-13T05:36:32;2.40;87.60
25352;DHT22;13304;48.464;8.712;2023-02-13T05:38:58;2.40;87.60
25352;DHT22;13304;48.464;8.712;2023-02-13T05:41:24;2.40;87.80
25352;DHT22;13304;48.464;8.712;2023-02-13T05:43:50;2.40;87.70
25352;DHT22;13304;48.464;8.712;2023-02-13T05:46:16;2.40;87.70
25352;DHT22;13304;48.464;8.712;2023-02-13T05:48:41;2.40;87.70
25352;DHT22;13304;48.464;8.712;2023-02-13T05:51:07;2.40;87.80
25352;DHT22;13304;48.464;8.712;2023-02-13T05:53:33;2.40;88.00
25352;DHT22;13304;48.464;8.712;2023-02-13T05:56:00;2.40;87.80
25352;DHT22;13304;48.464;8.712;2023-02-13T05:58:27;2.40;87.90
25352;DHT22;13304;48.464;8.712;2023-02-13T06:00:57;2.40;88.00
25352;DHT22;13304;48.464;8.712;2023-02-13T06:03:24;2.40;88.40
25352;DHT22;13304;48.464;8.712;2023-02-13T06:05:51;2.40;88.30
25352;DHT22;13304;48.464;8.712;2023-02-13T06:08:17;2.40;88.30
25352;DHT22;13304;48.464;8.712;2023-02-13T06:10:43;2.40;88.50
25352;DHT22;13304;48.464;8.712;2023-02-13T06:13:08;2.40;88.70
25352;DHT22;13304;48.464;8.712;2023-02-13T06:15:34;2.40;88.70
25352;DHT22;13304;48.464;8.712;2023-02-13T06:18:00;2.40;88.90
25352;DHT22;13304;48.464;8.712;2023-02-13T06:20:26;2.40;89.00
25352;DHT22;13304;48.464;8.712;2023-02-13T06:22:52;2.40;89.30
25352;DHT22;13304;48.464;8.712;2023-02-13T06:25:18;2.40;89.30
25352;DHT22;13304;48.464;8.712;2023-02-13T06:27:45;2.40;89.50
25352;DHT22;13304;48.464;8.712;2023-02-13T06:30:11;2.40;89.40
25352;DHT22;13304;48.464;8.712;2023-02-13T06:32:37;2.50;89.70
25352;DHT22;13304;48.464;8.712;2023-02-13T06:35:03;2.50;89.50
25352;DHT22;13304;48.464;8.712;2023-02-13T06:37:29;2.50;90.00
25352;DHT22;13304;48.464;8.712;2023-02-13T06:39:55;2.50;90.00
25352;DHT22;13304;48.464;8.712;2023-02-13T06:42:20;2.50;90.00
25352;DHT22;13304;48.464;8.712;2023-02-13T06:44:46;2.60;90.10
25352;DHT22;13304;48.464;8.712;2023-02-13T06:47:12;2.60;90.00
25352;DHT22;13304;48.464;8.712;2023-02-13T06:49:38;2.60;90.20
25352;DHT22;13304;48.464;8.712;2023-02-13T06:52:04;2.60;90.20
25352;DHT22;13304;48.464;8.712;2023-02-13T06:54:29;2.70;90.30
25352;DHT22;13304;48.464;8.712;2023-02-13T06:56:55;2.70;90.30
25352;DHT22;13304;48.464;8.712;2023-02-13T06:59:21;2.70;90.30
25352;DHT22;13304;48.464;8.712;2023-02-13T07:01:46;2.70;90.30
25352;DHT22;13304;48.464;8.712;2023-02-13T07:04:12;2.70;90.40
25352;DHT22;13304;48.464;8.712;2023-02-13T07:06:38;2.80;90.30
25352;DHT22;13304;48.464;8.712;2023-02-13T07:09:04;2.70;90.50
25352;DHT22;13304;48.464;8.712;2023-02-13T07:11:30;2.80;90.50
25352;DHT22;13304;48.464;8.712;2023-02-13T07:13:56;2.80;90.40
25352;DHT22;13304;48.464;8.712;2023-02-13T07:16:22;2.80;90.60
25352;DHT22;13304;48.464;8.712;2023-02-13T07:18:48;2.80;90.70
25352;DHT22;13304;48.464;8.712;2023-02-13T07:21:14;2.90;90.90
25352;DHT22;13304;48.464;8.712;2023-02-13T07:23:39;2.90;90.80
25352;DHT22;13304;48.464;8.712;2023-02-13T07:26:05;2.90;90.80
25352;DHT22;13304;48.464;8.712;2023-02-13T07:28:31;2.90;90.90
25352;DHT22;13304;48.464;8.712;2023-02-13T07:30:57;2.90;90.90
25352;DHT22;13304;48.464;8.712;2023-02-13T07:33:23;2.90;91.00
25352;DHT22;13304;48.464;8.712;2023-02-13T07:35:50;3.00;91.20
25352;DHT22;13304;48.464;8.712;2023-02-13T07:38:17;3.00;91.20
25352;DHT22;13304;48.464;8.712;2023-02-13T07:40:43;3.00;91.30
25352;DHT22;13304;48.464;8.712;2023-02-13T07:43:09;3.00;91.50
25352;DHT22;13304;48.464;8.712;2023-02-13T07:45:35;3.00;91.30
25352;DHT22;13304;48.464;8.712;2023-02-13T07:48:01;3.10;91.50
25352;DHT22;13304;48.464;8.712;2023-02-13T07:50:27;3.10;91.50
25352;DHT22;13304;48.464;8.712;2023-02-13T07:52:58;3.10;91.50
25352;DHT22;13304;48.464;8.712;2023-02-13T07:55:24;3.20;91.50
25352;DHT22;13304;48.464;8.712;2023-02-13T07:57:51;3.20;91.50
25352;DHT22;13304;48.464;8.712;2023-02-13T08:00:17;3.30;91.50
25352;DHT22;13304;48.464;8.712;2023-02-13T08:02:43;3.30;91.50
25352;DHT22;13304;48.464;8.712;2023-02-13T08:05:09;3.30;91.80
25352;DHT22;13304;48.464;8.712;2023-02-13T08:07:35;3.30;91.60
25352;DHT22;13304;48.464;8.712;2023-02-13T08:10:02;3.30;91.80
25352;DHT22;13304;48.464;8.712;2023-02-13T08:12:46;3.40;91.50
25352;DHT22;13304;48.464;8.712;2023-02-13T08:15:13;3.40;91.70
25352;DHT22;13304;48.464;8.712;2023-02-13T08:17:39;3.40;91.70
25352;DHT22;13304;48.464;8.712;2023-02-13T08:20:06;3.50;91.60
25352;DHT22;13304;48.464;8.712;2023-02-13T08:22:36;3.50;91.60
25352;DHT22;13304;48.464;8.712;2023-02-13T08:25:02;3.50;91.80
25352;DHT22;13304;48.464;8.712;2023-02-13T08:27:28;3.60;91.70
25352;DHT22;13304;48.464;8.712;2023-02-13T08:29:56;3.60;91.70
25352;DHT22;13304;48.464;8.712;2023-02-13T08:32:22;3.60;91.80
25352;DHT22;13304;48.464;8.712;2023-02-13T08:34:48;3.70;91.90
25352;DHT22;13304;48.464;8.712;2023-02-13T08:37:16;3.70;91.90
25352;DHT22;13304;48.464;8.712;2023-02-13T08:39:41;3.70;92.10
25352;DHT22;13304;48.464;8.712;2023-02-13T08:42:07;3.70;91.90
25352;DHT22;13304;48.464;8.712;2023-02-13T08:44:33;3.80;91.80
25352;DHT22;13304;48.464;8.712;2023-02-13T08:46:59;3.90;91.90
25352;DHT22;13304;48.464;8.712;2023-02-13T08:49:31;3.90;91.90
25352;DHT22;13304;48.464;8.712;2023-02-13T08:51:57;3.90;91.90
25352;DHT22;13304;48.464;8.712;2023-02-13T08:54:24;3.90;92.00
25352;DHT22;13304;48.464;8.712;2023-02-13T08:56:50;3.90;92.00
25352;DHT22;13304;48.464;8.712;2023-02-13T08:59:16;4.00;91.90
25352;DHT22;13304;48.464;8.712;2023-02-13T09:01:42;4.00;92.00
25352;DHT22;13304;48.464;8.712;2023-02-13T09:04:08;4.00;91.90
25352;DHT22;13304;48.464;8.712;2023-02-13T09:06:33;4.10;92.00
25352;DHT22;13304;48.464;8.712;2023-02-13T09:08:59;4.10;92.00
25352;DHT22;13304;48.464;8.712;2023-02-13T09:11:25;4.10;92.10
25352;DHT22;13304;48.464;8.712;2023-02-13T09:13:54;4.20;92.00
25352;DHT22;13304;48.464;8.712;2023-02-13T09:16:20;4.20;92.10
25352;DHT22;13304;48.464;8.712;2023-02-13T09:18:50;4.30;92.00
25352;DHT22;13304;48.464;8.712;2023-02-13T09:21:17;4.30;92.10
25352;DHT22;13304;48.464;8.712;2023-02-13T09:23:43;4.30;92.10
25352;DHT22;13304;48.464;8.712;2023-02-13T09:26:11;4.40;92.10
25352;DHT22;13304;48.464;8.712;2023-02-13T09:28:38;4.40;92.00
25352;DHT22;13304;48.464;8.712;2023-02-13T09:31:06;4.50;92.00
25352;DHT22;13304;48.464;8.712;2023-02-13T09:33:32;4.50;92.10
25352;DHT22;13304;48.464;8.712;2023-02-13T09:36:06;4.50;92.10
25352;DHT22;13304;48.464;8.712;2023-02-13T09:38:32;4.50;92.00
25352;DHT22;13304;48.464;8.712;2023-02-13T09:41:03;4.60;92.10
25352;DHT22;13304;48.464;8.712;2023-02-13T09:46:27;4.60;92.00
25352;DHT22;13304;48.464;8.712;2023-02-13T09:48:55;4.70;92.00
25352;DHT22;13304;48.464;8.712;2023-02-13T09:51:23;4.70;92.30
25352;DHT22;13304;48.464;8.712;2023-02-13T09:54:00;4.70;92.00
25352;DHT22;13304;48.464;8.712;2023-02-13T10:00:20;4.80;91.90
25352;DHT22;13304;48.464;8.712;2023-02-13T10:11:03;4.90;91.90
25352;DHT22;13304;48.464;8.712;2023-02-13T10:22:19;5.10;92.00
25352;DHT22;13304;48.464;8.712;2023-02-13T10:24:53;5.10;92.00
25352;DHT22;13304;48.464;8.712;2023-02-13T10:27:24;5.20;91.90
25352;DHT22;13304;48.464;8.712;2023-02-13T10:29:55;5.20;91.90
25352;DHT22;13304;48.464;8.712;2023-02-13T10:35:16;5.30;91.80
25352;DHT22;13304;48.464;8.712;2023-02-13T10:37:43;5.40;91.80
25352;DHT22;13304;48.464;8.712;2023-02-13T10:40:15;5.40;91.80
25352;DHT22;13304;48.464;8.712;2023-02-13T10:43:08;5.50;91.80
25352;DHT22;13304;48.464;8.712;2023-02-13T10:56:54;5.80;91.70
25352;DHT22;13304;48.464;8.712;2023-02-13T11:00:02;5.90;91.60
25352;DHT22;13304;48.464;8.712;2023-02-13T11:02:30;5.90;91.30
25352;DHT22;13304;48.464;8.712;2023-02-13T11:05:20;6.00;91.40
25352;DHT22;13304;48.464;8.712;2023-02-13T11:07:47;6.00;91.30
25352;DHT22;13304;48.464;8.712;2023-02-13T11:12:43;6.10;91.00
25352;DHT22;13304;48.464;8.712;2023-02-13T11:15:25;6.10;90.90
25352;DHT22;13304;48.464;8.712;2023-02-13T11:17:57;6.10;90.70
25352;DHT22;13304;48.464;8.712;2023-02-13T11:20:34;6.20;90.80
25352;DHT22;13304;48.464;8.712;2023-02-13T11:26:03;6.20;90.60
25352;DHT22;13304;48.464;8.712;2023-02-13T11:31:26;6.30;90.60
25352;DHT22;13304;48.464;8.712;2023-02-13T11:33:53;6.30;90.60
25352;DHT22;13304;48.464;8.712;2023-02-13T11:36:25;6.30;90.60
25352;DHT22;13304;48.464;8.712;2023-02-13T11:39:03;6.30;90.60
25352;DHT22;13304;48.464;8.712;2023-02-13T11:41:31;6.40;90.70
25352;DHT22;13304;48.464;8.712;2023-02-13T11:44:01;6.40;90.70
25352;DHT22;13304;48.464;8.712;2023-02-13T11:47:04;6.50;90.70
25352;DHT22;13304;48.464;8.712;2023-02-13T11:49:37;6.50;90.70
25352;DHT22;13304;48.464;8.712;2023-02-13T11:52:06;6.50;90.60
25352;DHT22;13304;48.464;8.712;2023-02-13T11:54:44;6.60;90.60
25352;DHT22;13304;48.464;8.712;2023-02-13T11:57:22;6.50;90.20
25352;DHT22;13304;48.464;8.712;2023-02-13T11:59:50;6.60;90.30
25352;DHT22;13304;48.464;8.712;2023-02-13T12:02:42;6.60;90.40
25352;DHT22;13304;48.464;8.712;2023-02-13T12:07:41;6.70;90.40
25352;DHT22;13304;48.464;8.712;2023-02-13T12:12:53;6.70;90.20
25352;DHT22;13304;48.464;8.712;2023-02-13T12:15:26;6.70;90.70
25352;DHT22;13304;48.464;8.712;2023-02-13T12:18:18;6.80;90.30
25352;DHT22;13304;48.464;8.712;2023-02-13T12:21:02;6.80;90.10
25352;DHT22;13304;48.464;8.712;2023-02-13T12:30:32;6.90;90.10
25352;DHT22;13304;48.464;8.712;2023-02-13T12:43:01;7.10;90.20
25352;DHT22;13304;48.464;8.712;2023-02-13T12:53:35;7.20;89.00
25352;DHT22;13304;48.464;8.712;2023-02-13T13:07:48;7.10;88.90
25352;DHT22;13304;48.464;8.712;2023-02-13T13:19:12;7.00;89.30
25352;DHT22;13304;48.464;8.712;2023-02-13T13:27:36;7.00;89.90
25352;DHT22;13304;48.464;8.712;2023-02-13T13:30:26;7.00;90.00
25352;DHT22;13304;48.464;8.712;2023-02-13T13:33:17;7.00;90.00
25352;DHT22;13304;48.464;8.712;2023-02-13T13:36:08;7.00;90.10
25352;DHT22;13304;48.464;8.712;2023-02-13T13:38:46;7.10;90.10
25352;DHT22;13304;48.464;8.712;2023-02-13T13:54:44;7.20;90.20
25352;DHT22;13304;48.464;8.712;2023-02-13T13:57:23;7.30;90.20
25352;DHT22;13304;48.464;8.712;2023-02-13T14:00:18;7.30;90.30
25352;DHT22;13304;48.464;8.712;2023-02-13T14:03:11;7.30;90.20
25352;DHT22;13304;48.464;8.712;2023-02-13T14:06:00;7.40;90.20
25352;DHT22;13304;48.464;8.712;2023-02-13T14:11:37;7.40;90.20
25352;DHT22;13304;48.464;8.712;2023-02-13T14:17:00;7.50;90.10
25352;DHT22;13304;48.464;8.712;2023-02-13T14:19:31;7.50;90.10
25352;DHT22;13304;48.464;8.712;2023-02-13T14:22:31;7.60;90.20
25352;DHT22;13304;48.464;8.712;2023-02-13T14:25:25;7.60;90.00
25352;DHT22;13304;48.464;8.712;2023-02-13T14:27:57;7.60;90.00
25352;DHT22;13304;48.464;8.712;2023-02-13T14:30:33;7.70;90.00
25352;DHT22;13304;48.464;8.712;2023-02-13T14:33:03;7.70;89.90
25352;DHT22;13304;48.464;8.712;2023-02-13T14:35:35;7.70;89.80
25352;DHT22;13304;48.464;8.712;2023-02-13T14:38:05;7.80;89.80
25352;DHT22;13304;48.464;8.712;2023-02-13T14:40:48;7.80;89.70
25352;DHT22;13304;48.464;8.712;2023-02-13T14:45:57;7.80;89.50
25352;DHT22;13304;48.464;8.712;2023-02-13T14:48:54;7.80;89.60
25352;DHT22;13304;48.464;8.712;2023-02-13T14:51:34;7.80;89.50
25352;DHT22;13304;48.464;8.712;2023-02-13T14:54:14;7.90;89.60
25352;DHT22;13304;48.464;8.712;2023-02-13T14:56:44;7.90;89.50
25352;DHT22;13304;48.464;8.712;2023-02-13T14:59:16;7.90;89.50
25352;DHT22;13304;48.464;8.712;2023-02-13T15:01:55;7.90;89.50
25352;DHT22;13304;48.464;8.712;2023-02-13T15:04:42;7.90;89.40
25352;DHT22;13304;48.464;8.712;2023-02-13T15:07:40;7.90;89.30
25352;DHT22;13304;48.464;8.712;2023-02-13T15:10:47;7.90;89.10
25352;DHT22;13304;48.464;8.712;2023-02-13T15:13:25;7.90;89.10
25352;DHT22;13304;48.464;8.712;2023-02-13T15:15:58;7.90;89.20
25352;DHT22;13304;48.464;8.712;2023-02-13T15:18:27;8.00;89.30
25352;DHT22;13304;48.464;8.712;2023-02-13T15:20:55;8.00;89.20
25352;DHT22;13304;48.464;8.712;2023-02-13T15:23:30;8.00;89.20
25352;DHT22;13304;48.464;8.712;2023-02-13T15:26:05;8.00;89.10
25352;DHT22;13304;48.464;8.712;2023-02-13T15:28:33;8.00;89.00
25352;DHT22;13304;48.464;8.712;2023-02-13T15:31:18;8.10;89.10
25352;DHT22;13304;48.464;8.712;2023-02-13T15:33:47;8.00;89.00
25352;DHT22;13304;48.464;8.712;2023-02-13T15:36:25;8.10;89.10
25352;DHT22;13304;48.464;8.712;2023-02-13T15:39:02;8.10;89.00
25352;DHT22;13304;48.464;8.712;2023-02-13T15:41:42;8.10;89.00
25352;DHT22;13304;48.464;8.712;2023-02-13T15:44:16;8.10;88.90
25352;DHT22;13304;48.464;8.712;2023-02-13T15:46:46;8.10;88.90
25352;DHT22;13304;48.464;8.712;2023-02-13T15:49:16;8.10;88.80
25352;DHT22;13304;48.464;8.712;2023-02-13T15:51:43;8.00;88.80
25352;DHT22;13304;48.464;8.712;2023-02-13T15:54:29;8.10;88.80
25352;DHT22;13304;48.464;8.712;2023-02-13T15:56:58;8.10;88.60
25352;DHT22;13304;48.464;8.712;2023-02-13T15:59:28;8.10;88.70
25352;DHT22;13304;48.464;8.712;2023-02-13T16:01:57;8.10;88.70
25352;DHT22;13304;48.464;8.712;2023-02-13T16:04:24;8.00;88.70
25352;DHT22;13304;48.464;8.712;2023-02-13T16:06:52;8.00;88.70
25352;DHT22;13304;48.464;8.712;2023-02-13T16:11:48;7.90;88.80
25352;DHT22;13304;48.464;8.712;2023-02-13T16:14:26;8.00;88.70
25352;DHT22;13304;48.464;8.712;2023-02-13T16:16:56;8.00;88.60
25352;DHT22;13304;48.464;8.712;2023-02-13T16:21:53;8.00;88.60
25352;DHT22;13304;48.464;8.712;2023-02-13T16:24:20;8.00;88.50
25352;DHT22;13304;48.464;8.712;2023-02-13T16:26:46;8.00;88.40
25352;DHT22;13304;48.464;8.712;2023-02-13T16:29:18;7.90;88.40
25352;DHT22;13304;48.464;8.712;2023-02-13T16:31:44;7.90;88.40
25352;DHT22;13304;48.464;8.712;2023-02-13T16:34:28;7.90;88.30
25352;DHT22;13304;48.464;8.712;2023-02-13T16:36:54;7.80;87.90
25352;DHT22;13304;48.464;8.712;2023-02-13T16:39:26;7.80;87.70
25352;DHT22;13304;48.464;8.712;2023-02-13T16:41:53;7.70;87.50
25352;DHT22;13304;48.464;8.712;2023-02-13T16:44:28;7.70;87.40
25352;DHT22;13304;48.464;8.712;2023-02-13T16:47:00;7.70;87.30
25352;DHT22;13304;48.464;8.712;2023-02-13T16:49:34;7.60;87.10
25352;DHT22;13304;48.464;8.712;2023-02-13T16:52:21;7.60;87.00
25352;DHT22;13304;48.464;8.712;2023-02-13T16:54:53;7.50;86.80
25352;DHT22;13304;48.464;8.712;2023-02-13T17:02:24;7.30;86.50
25352;DHT22;13304;48.464;8.712;2023-02-13T17:07:38;7.20;86.20
25352;DHT22;13304;48.464;8.712;2023-02-13T17:10:09;7.10;86.20
25352;DHT22;13304;48.464;8.712;2023-02-13T17:12:43;7.10;86.20
25352;DHT22;13304;48.464;8.712;2023-02-13T17:15:19;7.00;86.20
25352;DHT22;13304;48.464;8.712;2023-02-13T17:17:46;6.90;86.30
25352;DHT22;13304;48.464;8.712;2023-02-13T17:20:17;6.90;86.30
25352;DHT22;13304;48.464;8.712;2023-02-13T17:22:46;6.80;86.20
25352;DHT22;13304;48.464;8.712;2023-02-13T17:25:18;6.70;86.20
25352;DHT22;13304;48.464;8.712;2023-02-13T17:27:47;6.70;86.40
25352;DHT22;13304;48.464;8.712;2023-02-13T17:30:19;6.70;86.50
25352;DHT22;13304;48.464;8.712;2023-02-13T17:32:46;6.60;86.60
25352;DHT22;13304;48.464;8.712;2023-02-13T17:35:14;6.50;86.70
25352;DHT22;13304;48.464;8.712;2023-02-13T17:37:41;6.50;86.80
25352;DHT22;13304;48.464;8.712;2023-02-13T17:40:08;6.40;86.80
25352;DHT22;13304;48.464;8.712;2023-02-13T17:42:35;6.40;86.70
25352;DHT22;13304;48.464;8.712;2023-02-13T17:45:01;6.40;86.80
25352;DHT22;13304;48.464;8.712;2023-02-13T17:47:26;6.40;86.80
25352;DHT22;13304;48.464;8.712;2023-02-13T17:49:54;6.30;86.80
25352;DHT22;13304;48.464;8.712;2023-02-13T17:52:26;6.30;86.80
25352;DHT22;13304;48.464;8.712;2023-02-13T17:54:52;6.20;87.00
25352;DHT22;13304;48.464;8.712;2023-02-13T17:57:18;6.20;87.10
25352;DHT22;13304;48.464;8.712;2023-02-13T17:59:44;6.10;87.20
25352;DHT22;13304;48.464;8.712;2023-02-13T18:02:22;6.10;87.40
25352;DHT22;13304;48.464;8.712;2023-02-13T18:04:48;6.10;87.60
25352;DHT22;13304;48.464;8.712;2023-02-13T18:07:17;6.10;88.20
25352;DHT22;13304;48.464;8.712;2023-02-13T18:09:43;6.00;87.30
25352;DHT22;13304;48.464;8.712;2023-02-13T18:12:21;6.00;87.20
25352;DHT22;13304;48.464;8.712;2023-02-13T18:14:48;5.90;87.10
25352;DHT22;13304;48.464;8.712;2023-02-13T18:17:14;5.90;87.10
25352;DHT22;13304;48.464;8.712;2023-02-13T18:19:40;5.90;87.10
25352;DHT22;13304;48.464;8.712;2023-02-13T18:22:07;5.90;87.20
25352;DHT22;13304;48.464;8.712;2023-02-13T18:24:35;5.80;87.20
25352;DHT22;13304;48.464;8.712;2023-02-13T18:27:01;5.80;87.30
25352;DHT22;13304;48.464;8.712;2023-02-13T18:29:27;5.80;87.30
25352;DHT22;13304;48.464;8.712;2023-02-13T18:31:53;5.80;87.40
25352;DHT22;13304;48.464;8.712;2023-02-13T18:34:20;5.70;87.50
25352;DHT22;13304;48.464;8.712;2023-02-13T18:36:47;5.70;87.70
25352;DHT22;13304;48.464;8.712;2023-02-13T18:39:14;5.70;87.60
25352;DHT22;13304;48.464;8.712;2023-02-13T18:41:40;5.60;87.50
25352;DHT22;13304;48.464;8.712;2023-02-13T18:44:05;5.50;87.20
25352;DHT22;13304;48.464;8.712;2023-02-13T18:46:31;5.50;87.10
25352;DHT22;13304;48.464;8.712;2023-02-13T18:48:57;5.50;87.00
25352;DHT22;13304;48.464;8.712;2023-02-13T18:51:23;5.50;87.10
25352;DHT22;13304;48.464;8.712;2023-02-13T18:53:49;5.40;87.20
25352;DHT22;13304;48.464;8.712;2023-02-13T18:56:15;5.40;87.30
25352;DHT22;13304;48.464;8.712;2023-02-13T18:58:40;5.40;87.30
25352;DHT22;13304;48.464;8.712;2023-02-13T19:01:11;5.40;87.40
25352;DHT22;13304;48.464;8.712;2023-02-13T19:03:37;5.40;87.50
25352;DHT22;13304;48.464;8.712;2023-02-13T19:06:04;5.30;87.70
25352;DHT22;13304;48.464;8.712;2023-02-13T19:08:30;5.30;87.70